Time;durP1;ratioP1;P1;durP2;ratioP2;P2;SDS_P1;SDS_P2;PMS_P1;PMS_P2;Temp;Humidity;BMP_temperature;BMP_pressure;BME280_temperature;BME280_humidity;BME280_pressure;Samples;Min_cycle;Max_cycle;Signal;HPM_P1;HPM_P2
2023/10/27 00:01:44;;;;;;;30.35;15.65;;;10.00;99.90;;;;;;5031084;28;20052;-74
2023/10/27 00:04:10;;;;;;;28.45;15.43;;;10.10;99.90;;;;;;5030927;28;20139;-74
2023/10/27 00:06:35;;;;;;;29.02;16.33;;;10.00;99.90;;;;;;5030864;28;20059;-73
2023/10/27 00:09:02;;;;;;;28.65;15.32;;;10.10;99.90;;;;;;5031219;28;20516;-74
2023/10/27 00:11:28;;;;;;;30.70;16.38;;;10.10;99.90;;;;;;5030636;28;20053;-73
2023/10/27 00:13:55;;;;;;;29.17;14.85;;;10.00;99.90;;;;;;5031320;28;20051;-74
2023/10/27 00:16:21;;;;;;;29.05;15.77;;;10.10;99.90;;;;;;5030848;28;20083;-74
2023/10/27 00:18:46;;;;;;;26.70;15.75;;;10.00;99.90;;;;;;5049072;28;20126;-73
2023/10/27 00:21:12;;;;;;;29.23;16.05;;;10.00;99.90;;;;;;5031189;28;20052;-74
2023/10/27 00:23:38;;;;;;;29.85;15.55;;;10.00;99.90;;;;;;5030989;28;20512;-73
2023/10/27 00:26:04;;;;;;;32.30;14.88;;;10.10;99.90;;;;;;5033691;28;20053;-73
2023/10/27 00:28:30;;;;;;;30.95;16.15;;;10.10;99.90;;;;;;5037004;28;20422;-74
2023/10/27 00:30:56;;;;;;;27.00;14.73;;;10.10;99.90;;;;;;5051385;28;20048;-73
2023/10/27 00:33:22;;;;;;;31.15;16.60;;;10.00;99.90;;;;;;5032497;28;20087;-73
2023/10/27 00:35:51;;;;;;;28.13;15.88;;;10.10;99.90;;;;;;5030893;28;20044;-74
2023/10/27 00:38:17;;;;;;;27.67;14.95;;;10.10;99.90;;;;;;5030657;28;20122;-73
2023/10/27 00:40:43;;;;;;;32.95;15.15;;;10.10;99.90;;;;;;5048681;28;20048;-73
2023/10/27 00:43:13;;;;;;;29.33;15.05;;;10.10;99.90;;;;;;5030875;28;20052;-74
2023/10/27 00:45:38;;;;;;;28.60;15.63;;;10.10;99.90;;;;;;5030394;28;20107;-74
2023/10/27 00:48:04;;;;;;;31.38;14.98;;;10.10;99.90;;;;;;5030594;28;20516;-74
2023/10/27 00:50:30;;;;;;;25.75;14.40;;;10.10;99.90;;;;;;5034075;28;20417;-73
2023/10/27 00:52:56;;;;;;;28.75;15.40;;;10.10;99.90;;;;;;5034261;28;20049;-74
2023/10/27 00:55:22;;;;;;;27.17;14.48;;;10.10;99.90;;;;;;5017595;28;20091;-74
2023/10/27 00:57:52;;;;;;;32.30;16.30;;;10.00;99.90;;;;;;5034258;28;20052;-73
2023/10/27 01:00:17;;;;;;;34.53;16.45;;;10.00;99.90;;;;;;5017598;28;20081;-73
2023/10/27 01:02:43;;;;;;;28.30;15.10;;;10.00;99.90;;;;;;5052044;28;20091;-73
2023/10/27 01:05:09;;;;;;;30.45;14.95;;;10.00;99.90;;;;;;5033768;28;20504;-73
2023/10/27 01:07:35;;;;;;;28.30;15.27;;;10.00;99.90;;;;;;5034128;28;20061;-73
2023/10/27 01:10:02;;;;;;;33.03;15.40;;;10.00;99.90;;;;;;5033906;28;20061;-73
2023/10/27 01:12:27;;;;;;;30.08;15.40;;;10.10;99.90;;;;;;5034139;28;20548;-73
2023/10/27 01:14:53;;;;;;;30.70;16.05;;;10.10;99.90;;;;;;5017243;28;20198;-74
2023/10/27 01:17:19;;;;;;;25.70;14.35;;;10.10;99.90;;;;;;5051568;28;20060;-73
2023/10/27 01:19:45;;;;;;;25.20;14.23;;;10.10;99.90;;;;;;5033592;28;20108;-73
2023/10/27 01:22:14;;;;;;;27.60;14.73;;;10.00;99.90;;;;;;5033982;28;20386;-73
2023/10/27 01:24:41;;;;;;;28.58;14.35;;;10.10;99.90;;;;;;5033376;28;20060;-74
2023/10/27 01:27:07;;;;;;;26.52;14.75;;;10.10;99.90;;;;;;5033544;28;20211;-73
2023/10/27 01:29:33;;;;;;;27.80;14.35;;;10.10;99.90;;;;;;5033913;28;20128;-74
2023/10/27 01:31:59;;;;;;;25.85;13.63;;;10.10;99.90;;;;;;5033531;28;20052;-74
2023/10/27 01:34:25;;;;;;;24.80;13.63;;;10.10;99.90;;;;;;5033256;28;20432;-73
2023/10/27 01:36:51;;;;;;;26.20;13.90;;;10.20;99.90;;;;;;5033477;28;20119;-74
2023/10/27 01:39:17;;;;;;;29.00;14.65;;;10.10;99.90;;;;;;5016873;28;20056;-73
2023/10/27 01:41:43;;;;;;;26.92;13.77;;;10.10;99.90;;;;;;5016895;28;20053;-74
2023/10/27 01:44:08;;;;;;;28.55;14.63;;;10.10;99.90;;;;;;5033601;28;20083;-74
2023/10/27 01:46:34;;;;;;;27.27;13.80;;;10.10;99.90;;;;;;5016901;28;20520;-73
2023/10/27 01:49:00;;;;;;;26.85;14.43;;;10.10;99.90;;;;;;5033205;28;20131;-74
2023/10/27 01:51:25;;;;;;;32.17;13.85;;;10.10;99.90;;;;;;5033192;28;20057;-73
2023/10/27 01:53:51;;;;;;;29.65;14.38;;;10.10;99.90;;;;;;5033048;28;20500;-74
2023/10/27 01:56:17;;;;;;;27.42;14.52;;;10.10;99.90;;;;;;5033235;28;20057;-73
2023/10/27 01:58:44;;;;;;;30.35;16.10;;;10.10;99.90;;;;;;5050889;28;20480;-73
2023/10/27 02:01:12;;;;;;;27.92;14.55;;;10.10;99.90;;;;;;5032740;28;20074;-73
2023/10/27 02:03:38;;;;;;;29.13;15.15;;;10.10;99.90;;;;;;5042982;28;20128;-73
2023/10/27 02:06:04;;;;;;;27.58;15.02;;;10.00;99.90;;;;;;5049702;28;20132;-73
2023/10/27 02:08:29;;;;;;;29.58;15.25;;;10.00;99.90;;;;;;5049641;28;20492;-74
2023/10/27 02:10:55;;;;;;;30.70;14.68;;;10.10;99.90;;;;;;5049578;28;20049;-73
2023/10/27 02:13:21;;;;;;;30.77;15.98;;;10.10;99.90;;;;;;5049635;28;20063;-74
2023/10/27 02:15:47;;;;;;;30.75;16.08;;;10.00;99.90;;;;;;5049518;28;20056;-73
2023/10/27 02:18:12;;;;;;;26.85;14.48;;;10.00;99.90;;;;;;5049668;28;20053;-73
2023/10/27 02:20:38;;;;;;;27.98;16.05;;;10.00;99.90;;;;;;5049717;28;20128;-73
2023/10/27 02:23:04;;;;;;;30.58;16.10;;;10.00;99.90;;;;;;5049822;28;20114;-74
2023/10/27 02:25:29;;;;;;;31.73;16.30;;;10.00;99.90;;;;;;5049232;28;20060;-73
2023/10/27 02:27:55;;;;;;;33.42;16.00;;;10.00;99.90;;;;;;5033008;28;20084;-74
2023/10/27 02:30:21;;;;;;;32.17;16.02;;;10.00;99.90;;;;;;5049343;28;20119;-74
2023/10/27 02:32:47;;;;;;;34.60;16.80;;;10.00;99.90;;;;;;5050473;28;20041;-73
2023/10/27 02:35:12;;;;;;;31.08;15.77;;;10.00;99.90;;;;;;5050697;28;20044;-73
2023/10/27 02:37:38;;;;;;;32.85;17.48;;;10.00;99.90;;;;;;5050608;28;20048;-73
2023/10/27 02:40:04;;;;;;;31.65;16.55;;;10.00;99.90;;;;;;5048921;28;20045;-74
2023/10/27 02:42:30;;;;;;;34.67;17.83;;;10.00;99.90;;;;;;5048976;28;20099;-74
2023/10/27 02:44:56;;;;;;;37.30;16.67;;;9.90;99.90;;;;;;5048892;28;20045;-74
2023/10/27 02:47:21;;;;;;;41.13;20.05;;;9.90;99.90;;;;;;5048745;28;20060;-74
2023/10/27 02:49:47;;;;;;;37.88;16.08;;;9.90;99.90;;;;;;5050137;28;20052;-73
2023/10/27 02:52:13;;;;;;;31.75;16.02;;;10.00;99.90;;;;;;5049908;28;20632;-74
2023/10/27 02:54:38;;;;;;;34.97;16.60;;;10.00;99.90;;;;;;5049983;28;20137;-73
2023/10/27 02:57:04;;;;;;;33.75;17.40;;;10.00;99.90;;;;;;5032216;28;20095;-74
2023/10/27 02:59:30;;;;;;;35.38;17.90;;;10.00;99.90;;;;;;5031975;28;20056;-73
2023/10/27 03:01:55;;;;;;;34.97;15.93;;;10.10;99.90;;;;;;5031599;28;20068;-74
2023/10/27 03:04:21;;;;;;;31.98;16.27;;;10.10;99.90;;;;;;5032057;28;20057;-74
2023/10/27 03:06:47;;;;;;;32.63;16.05;;;10.10;99.90;;;;;;5015448;28;20049;-73
2023/10/27 03:09:12;;;;;;;34.28;15.85;;;10.10;99.90;;;;;;5015438;28;20052;-74
2023/10/27 03:11:38;;;;;;;31.20;15.80;;;10.10;99.90;;;;;;5031920;28;20053;-74
2023/10/27 03:14:04;;;;;;;32.15;14.93;;;10.10;99.90;;;;;;5032085;28;20076;-74
2023/10/27 03:16:30;;;;;;;29.40;14.20;;;10.10;99.90;;;;;;5033240;28;20129;-73
2023/10/27 03:18:55;;;;;;;28.67;14.63;;;10.10;99.90;;;;;;5036622;28;20148;-74
2023/10/27 03:21:21;;;;;;;28.70;14.52;;;10.10;99.90;;;;;;5020442;28;20045;-74
2023/10/27 03:23:47;;;;;;;30.52;15.50;;;10.10;99.90;;;;;;5034927;28;20061;-74
2023/10/27 03:26:13;;;;;;;31.77;14.55;;;10.10;99.90;;;;;;5032262;28;20394;-73
2023/10/27 03:28:38;;;;;;;32.40;14.18;;;10.10;99.90;;;;;;5032101;28;20060;-73
2023/10/27 03:31:04;;;;;;;28.00;13.73;;;10.10;99.90;;;;;;5031419;28;20068;-74
2023/10/27 03:33:30;;;;;;;29.25;13.60;;;10.10;99.90;;;;;;5031732;28;20055;-73
2023/10/27 03:35:55;;;;;;;28.90;14.65;;;10.10;99.90;;;;;;5031527;28;20449;-73
2023/10/27 03:38:21;;;;;;;26.73;13.75;;;10.10;99.90;;;;;;5049472;28;20052;-73
2023/10/27 03:40:48;;;;;;;26.00;13.65;;;10.20;99.90;;;;;;5031373;28;20126;-73
2023/10/27 03:43:15;;;;;;;26.10;13.45;;;10.20;99.90;;;;;;5031307;28;20045;-74
2023/10/27 03:45:41;;;;;;;25.50;12.55;;;10.10;99.90;;;;;;5031159;28;20088;-73
2023/10/27 03:48:06;;;;;;;28.20;14.52;;;10.10;99.90;;;;;;5031398;28;20060;-73
2023/10/27 03:50:32;;;;;;;28.58;14.82;;;10.10;99.90;;;;;;5049397;28;20065;-73
2023/10/27 03:52:58;;;;;;;26.25;13.75;;;10.10;99.90;;;;;;5031507;28;20524;-73
2023/10/27 03:55:24;;;;;;;27.13;13.68;;;10.10;99.90;;;;;;5031463;28;20146;-73
2023/10/27 03:57:55;;;;;;;25.33;13.68;;;10.00;99.90;;;;;;5049580;28;20124;-74
2023/10/27 04:00:21;;;;;;;25.42;14.13;;;10.10;99.90;;;;;;5031280;28;20052;-73
2023/10/27 04:02:46;;;;;;;26.15;14.95;;;10.10;99.90;;;;;;5031670;28;20053;-73
2023/10/27 04:05:13;;;;;;;27.05;14.02;;;10.10;99.90;;;;;;5031159;28;20089;-73
2023/10/27 04:07:38;;;;;;;23.05;13.02;;;10.00;99.90;;;;;;5031160;28;20061;-73
2023/10/27 04:10:04;;;;;;;28.75;13.65;;;10.10;99.90;;;;;;5031060;28;20040;-73
2023/10/27 04:12:30;;;;;;;25.02;12.63;;;10.10;99.90;;;;;;5031425;28;20378;-73
2023/10/27 04:14:56;;;;;;;24.65;12.95;;;10.10;99.90;;;;;;5031239;28;20226;-73
2023/10/27 04:17:21;;;;;;;25.35;13.35;;;10.10;99.90;;;;;;5014909;28;20523;-73
2023/10/27 04:19:47;;;;;;;24.55;12.57;;;10.10;99.90;;;;;;5031326;28;20197;-73
2023/10/27 04:22:14;;;;;;;26.27;12.80;;;10.10;99.90;;;;;;5031312;28;20052;-73
2023/10/27 04:24:40;;;;;;;23.88;11.48;;;10.10;99.90;;;;;;5033836;28;20049;-73
2023/10/27 04:27:05;;;;;;;24.70;12.05;;;10.00;99.90;;;;;;5035021;28;20057;-73
2023/10/27 04:29:31;;;;;;;26.08;12.68;;;10.10;99.90;;;;;;5034659;28;20386;-73
2023/10/27 04:31:57;;;;;;;23.88;12.70;;;10.10;99.90;;;;;;5018716;28;20041;-73
2023/10/27 04:34:22;;;;;;;25.45;13.15;;;10.00;99.90;;;;;;5034719;28;20057;-73
2023/10/27 04:36:49;;;;;;;25.48;12.65;;;10.00;99.90;;;;;;5034701;28;20045;-73
2023/10/27 04:39:14;;;;;;;24.33;12.52;;;10.00;99.90;;;;;;5034692;28;20049;-73
2023/10/27 04:41:40;;;;;;;23.92;12.20;;;9.90;99.90;;;;;;5034610;28;20128;-73
2023/10/27 04:44:06;;;;;;;22.55;11.73;;;9.90;99.90;;;;;;5034333;28;20049;-73
2023/10/27 04:46:31;;;;;;;27.48;12.38;;;9.90;99.90;;;;;;5034655;28;20060;-73
2023/10/27 04:48:57;;;;;;;24.55;12.23;;;9.90;99.90;;;;;;5034422;28;20053;-73
2023/10/27 04:51:24;;;;;;;26.33;12.68;;;9.90;99.90;;;;;;5034163;28;20301;-73
2023/10/27 04:53:50;;;;;;;26.15;12.63;;;10.00;99.90;;;;;;5034439;28;20057;-73
2023/10/27 04:56:16;;;;;;;22.63;12.18;;;10.00;99.90;;;;;;5034263;28;20154;-73
2023/10/27 04:58:44;;;;;;;22.60;12.13;;;10.00;99.90;;;;;;5034434;28;20084;-73
2023/10/27 05:01:10;;;;;;;24.00;12.57;;;10.00;99.90;;;;;;5052233;28;20055;-73
2023/10/27 05:03:35;;;;;;;23.17;11.98;;;10.00;99.90;;;;;;5034149;28;20045;-73
2023/10/27 05:06:11;;;;;;;27.90;13.27;;;10.00;99.90;;;;;;5052147;28;20084;-73
2023/10/27 05:08:37;;;;;;;24.27;12.93;;;10.00;99.90;;;;;;5052185;28;20667;-73
2023/10/27 05:11:04;;;;;;;27.30;12.85;;;10.00;99.90;;;;;;5033601;28;20176;-73
2023/10/27 05:13:30;;;;;;;26.85;13.95;;;10.00;99.90;;;;;;5034173;28;20382;-73
2023/10/27 05:15:55;;;;;;;28.02;13.48;;;10.00;99.90;;;;;;5034014;28;20041;-73
2023/10/27 05:18:21;;;;;;;32.42;14.70;;;9.90;99.90;;;;;;5051883;28;20118;-73
2023/10/27 05:20:47;;;;;;;29.00;14.32;;;9.90;99.90;;;;;;5034040;28;20075;-73
2023/10/27 05:23:13;;;;;;;22.92;12.73;;;9.90;99.90;;;;;;5034290;28;20179;-73
2023/10/27 05:25:40;;;;;;;25.65;13.13;;;9.90;99.90;;;;;;5033615;28;20548;-73
2023/10/27 05:28:05;;;;;;;27.17;14.38;;;9.90;99.90;;;;;;5017669;28;20390;-73
2023/10/27 05:30:34;;;;;;;24.42;13.38;;;9.90;99.90;;;;;;5034144;28;20064;-73
2023/10/27 05:33:00;;;;;;;24.25;13.45;;;9.90;99.90;;;;;;5034111;28;20045;-73
2023/10/27 05:35:25;;;;;;;27.10;13.50;;;9.90;99.90;;;;;;5033575;28;20049;-73
2023/10/27 05:37:51;;;;;;;31.50;15.02;;;9.90;99.90;;;;;;5034341;28;20106;-73
2023/10/27 05:40:17;;;;;;;28.85;15.32;;;9.90;99.90;;;;;;5033360;28;20059;-73
2023/10/27 05:42:43;;;;;;;26.85;13.95;;;9.80;99.90;;;;;;5051660;28;20065;-73
2023/10/27 05:45:11;;;;;;;25.60;13.25;;;9.80;99.90;;;;;;5033093;28;20107;-73
2023/10/27 05:47:38;;;;;;;26.90;14.20;;;9.90;99.90;;;;;;5033868;28;20059;-73
2023/10/27 05:50:06;;;;;;;26.42;13.18;;;9.90;99.90;;;;;;5032822;28;20059;-73
2023/10/27 05:52:31;;;;;;;29.25;13.52;;;9.90;99.90;;;;;;5033298;28;20052;-74
2023/10/27 05:54:57;;;;;;;23.50;12.10;;;9.80;99.90;;;;;;5032990;28;20116;-73
2023/10/27 05:57:23;;;;;;;28.23;13.55;;;9.80;99.90;;;;;;5051279;28;20128;-73
2023/10/27 05:59:49;;;;;;;26.35;13.20;;;9.80;99.90;;;;;;5033579;28;20049;-74
2023/10/27 06:02:14;;;;;;;28.65;14.05;;;9.80;99.90;;;;;;5033625;28;20053;-73
2023/10/27 06:04:40;;;;;;;27.58;14.73;;;9.80;99.90;;;;;;5033077;28;20045;-73
2023/10/27 06:07:06;;;;;;;27.27;13.73;;;9.80;99.90;;;;;;5033606;28;20076;-73
2023/10/27 06:09:32;;;;;;;28.60;13.93;;;9.80;99.90;;;;;;5033073;28;20059;-73
2023/10/27 06:11:58;;;;;;;28.15;13.75;;;9.80;99.90;;;;;;5051564;28;20803;-73
2023/10/27 06:14:23;;;;;;;29.77;14.40;;;9.80;99.90;;;;;;5035562;28;20049;-72
2023/10/27 06:16:49;;;;;;;29.10;14.60;;;9.80;99.90;;;;;;5037465;28;20049;-73
2023/10/27 06:19:15;;;;;;;28.55;14.00;;;9.80;99.90;;;;;;5052204;28;20087;-73
2023/10/27 06:21:40;;;;;;;26.95;13.70;;;9.80;99.90;;;;;;5051800;28;20779;-73
2023/10/27 06:24:10;;;;;;;27.38;13.55;;;9.80;99.90;;;;;;5032925;28;20053;-73
2023/10/27 06:26:36;;;;;;;25.80;13.00;;;9.80;99.90;;;;;;5050862;28;20056;-73
2023/10/27 06:29:01;;;;;;;25.55;13.40;;;9.80;99.90;;;;;;5032914;28;20071;-73
2023/10/27 06:31:27;;;;;;;25.65;12.65;;;9.80;99.90;;;;;;5032821;28;20049;-73
2023/10/27 06:33:54;;;;;;;29.25;14.85;;;9.80;99.90;;;;;;5032777;28;20099;-73
2023/10/27 06:36:19;;;;;;;27.70;14.35;;;9.70;99.90;;;;;;5032949;28;20044;-72
2023/10/27 06:38:45;;;;;;;29.02;14.23;;;9.80;99.90;;;;;;5032316;28;20595;-73
2023/10/27 06:41:11;;;;;;;30.30;14.38;;;9.80;99.90;;;;;;5032667;28;20056;-72
2023/10/27 06:43:36;;;;;;;26.50;13.27;;;9.70;99.90;;;;;;5032452;28;20082;-73
2023/10/27 06:46:02;;;;;;;27.58;14.48;;;9.80;99.90;;;;;;5037005;28;20532;-73
2023/10/27 06:48:28;;;;;;;24.92;13.20;;;9.80;99.90;;;;;;5050456;28;20230;-74
2023/10/27 06:50:54;;;;;;;28.42;14.05;;;9.80;99.90;;;;;;5023172;28;20045;-73
2023/10/27 06:53:20;;;;;;;25.23;12.65;;;9.80;99.90;;;;;;5022779;28;20053;-74
2023/10/27 06:55:45;;;;;;;26.13;12.57;;;9.80;99.90;;;;;;5037915;28;20045;-74
2023/10/27 06:58:11;;;;;;;22.90;12.55;;;9.80;99.90;;;;;;5037201;28;20603;-74
2023/10/27 07:00:37;;;;;;;25.67;12.70;;;9.80;99.90;;;;;;5037413;28;20401;-73
2023/10/27 07:03:04;;;;;;;26.63;13.50;;;9.90;99.90;;;;;;5053273;28;20619;-74
2023/10/27 07:05:29;;;;;;;27.23;13.70;;;9.80;99.90;;;;;;5031705;28;20080;-74
2023/10/27 07:07:55;;;;;;;25.90;13.75;;;9.80;99.90;;;;;;5030867;28;20088;-74
2023/10/27 07:10:21;;;;;;;23.83;12.63;;;9.80;99.90;;;;;;5031479;28;20131;-73
2023/10/27 07:12:47;;;;;;;28.52;14.50;;;9.80;99.90;;;;;;5049431;28;20053;-73
2023/10/27 07:15:13;;;;;;;29.02;14.98;;;9.90;99.90;;;;;;5032028;28;20091;-73
2023/10/27 07:17:40;;;;;;;27.08;13.82;;;9.90;99.90;;;;;;5031152;28;20057;-73
2023/10/27 07:20:06;;;;;;;27.35;13.15;;;9.90;99.90;;;;;;5031075;28;20049;-72
2023/10/27 07:22:32;;;;;;;26.50;13.00;;;9.80;99.90;;;;;;5029727;28;20057;-73
2023/10/27 07:24:57;;;;;;;27.88;14.02;;;9.80;99.90;;;;;;5030535;28;20098;-73
2023/10/27 07:27:23;;;;;;;26.67;13.63;;;9.80;99.90;;;;;;5030325;28;20084;-74
2023/10/27 07:29:49;;;;;;;27.33;14.25;;;9.90;99.90;;;;;;5029964;28;20056;-74
2023/10/27 07:32:14;;;;;;;27.25;14.85;;;9.90;99.90;;;;;;5030359;28;20397;-73
2023/10/27 07:34:40;;;;;;;27.30;14.57;;;9.90;99.90;;;;;;5013372;28;20075;-73
2023/10/27 07:37:06;;;;;;;30.08;13.70;;;9.80;99.90;;;;;;5029553;28;20053;-73
2023/10/27 07:39:32;;;;;;;28.05;13.63;;;9.80;99.90;;;;;;5030449;28;20528;-74
2023/10/27 07:41:58;;;;;;;26.95;14.30;;;9.90;99.90;;;;;;5029923;28;20128;-73
2023/10/27 07:44:24;;;;;;;29.10;14.23;;;9.90;99.90;;;;;;5030037;28;20493;-73
2023/10/27 07:46:49;;;;;;;29.65;16.10;;;9.90;99.90;;;;;;5030260;28;20175;-73
2023/10/27 07:49:15;;;;;;;29.60;14.95;;;9.90;99.90;;;;;;5013620;28;20507;-73
2023/10/27 07:51:41;;;;;;;33.70;16.20;;;9.90;99.90;;;;;;5029860;28;20053;-73
2023/10/27 07:54:07;;;;;;;29.80;14.82;;;10.00;99.90;;;;;;5030131;28;20053;-73
2023/10/27 07:56:33;;;;;;;28.33;13.57;;;10.00;99.90;;;;;;5029644;28;20077;-73
2023/10/27 07:58:59;;;;;;;27.77;13.75;;;9.90;99.90;;;;;;5030372;28;20128;-73
2023/10/27 08:01:25;;;;;;;29.98;14.65;;;10.00;99.90;;;;;;5030361;28;20175;-72
2023/10/27 08:03:51;;;;;;;28.95;14.75;;;10.00;99.90;;;;;;5029889;28;20120;-72
2023/10/27 08:06:17;;;;;;;29.15;14.32;;;9.90;99.90;;;;;;5047362;28;20048;-72
2023/10/27 08:08:42;;;;;;;27.48;13.25;;;10.00;99.90;;;;;;5048108;28;20044;-72
2023/10/27 08:11:15;;;;;;;29.30;14.63;;;10.00;99.90;;;;;;5047695;28;20040;-72
2023/10/27 08:13:41;;;;;;;26.25;13.38;;;10.10;99.90;;;;;;5048319;28;20088;-72
2023/10/27 08:16:06;;;;;;;25.40;12.98;;;10.10;99.90;;;;;;5047904;28;20084;-72
2023/10/27 08:18:32;;;;;;;26.92;14.73;;;10.00;99.90;;;;;;5047473;28;20107;-72
2023/10/27 08:20:58;;;;;;;25.48;12.63;;;10.00;99.90;;;;;;5047963;28;20123;-72
2023/10/27 08:23:23;;;;;;;28.00;14.38;;;10.00;99.90;;;;;;5048024;28;20492;-72
2023/10/27 08:25:51;;;;;;;30.35;13.95;;;10.10;99.90;;;;;;5013216;28;20045;-72
2023/10/27 08:28:17;;;;;;;27.95;13.90;;;10.10;99.90;;;;;;5047911;28;20045;-73
2023/10/27 08:30:44;;;;;;;25.15;13.20;;;10.20;99.90;;;;;;5030033;28;20049;-72
2023/10/27 08:33:09;;;;;;;26.52;13.93;;;10.10;99.90;;;;;;5047978;28;20045;-72
2023/10/27 08:35:35;;;;;;;25.58;12.43;;;10.20;99.90;;;;;;5048528;28;20612;-71
2023/10/27 08:38:01;;;;;;;26.02;13.02;;;10.20;99.90;;;;;;5030648;28;20055;-73
2023/10/27 08:40:27;;;;;;;27.30;13.45;;;10.20;99.90;;;;;;5030752;28;20049;-73
2023/10/27 08:42:54;;;;;;;27.23;13.23;;;10.10;99.90;;;;;;5013511;28;20140;-72
2023/10/27 08:45:23;;;;;;;28.00;13.23;;;10.10;99.90;;;;;;5030762;28;20052;-72
2023/10/27 08:47:53;;;;;;;29.08;13.27;;;10.10;99.90;;;;;;5031711;28;20045;-71
2023/10/27 08:50:19;;;;;;;29.27;13.38;;;10.20;99.90;;;;;;5030700;28;20049;-71
2023/10/27 08:52:48;;;;;;;28.10;13.32;;;10.20;99.90;;;;;;5030743;28;20055;-74
2023/10/27 08:55:14;;;;;;;26.35;12.15;;;10.20;99.90;;;;;;5014317;28;20136;-74
2023/10/27 08:57:39;;;;;;;27.77;13.00;;;10.20;99.90;;;;;;5030549;28;20172;-74
2023/10/27 09:00:07;;;;;;;25.85;11.70;;;10.10;99.90;;;;;;5014302;28;20045;-73
2023/10/27 09:02:33;;;;;;;27.38;13.02;;;10.20;99.90;;;;;;5031071;28;20049;-74
2023/10/27 09:05:01;;;;;;;24.13;12.60;;;10.20;99.90;;;;;;5030807;28;20481;-74
2023/10/27 09:07:26;;;;;;;24.60;12.40;;;10.20;99.90;;;;;;5016262;28;20252;-74
2023/10/27 09:09:52;;;;;;;27.42;13.27;;;10.20;99.90;;;;;;5033171;28;20142;-74
2023/10/27 09:12:26;;;;;;;24.73;13.93;;;10.30;99.90;;;;;;5018048;28;20049;-74
2023/10/27 09:15:06;;;;;;;24.67;12.55;;;10.20;99.90;;;;;;5043297;28;20135;-74
2023/10/27 09:17:52;;;;;;;23.52;11.48;;;10.30;99.90;;;;;;5054020;28;20405;-74
2023/10/27 09:20:20;;;;;;;22.98;11.98;;;10.30;99.90;;;;;;5053683;28;20141;-75
2023/10/27 09:22:57;;;;;;;29.08;12.77;;;10.30;99.90;;;;;;5037443;28;20048;-76
2023/10/27 09:25:28;;;;;;;24.15;12.32;;;10.40;99.90;;;;;;5053813;28;20052;-75
2023/10/27 09:27:55;;;;;;;23.27;11.88;;;10.40;99.90;;;;;;5053691;28;20190;-76
2023/10/27 09:30:32;;;;;;;23.77;11.95;;;10.40;99.90;;;;;;5071849;28;20047;-75
2023/10/27 09:33:18;;;;;;;22.15;11.82;;;10.30;99.90;;;;;;5071436;28;20041;-76
2023/10/27 09:35:46;;;;;;;23.95;12.10;;;10.40;99.90;;;;;;5053556;28;20044;-75
2023/10/27 09:38:13;;;;;;;28.00;13.68;;;10.30;99.90;;;;;;5053972;28;20060;-77
2023/10/27 09:40:43;;;;;;;22.17;11.93;;;10.30;99.90;;;;;;5036877;28;20055;-76
2023/10/27 09:43:17;;;;;;;21.25;10.68;;;10.40;99.90;;;;;;5053999;28;20117;-76
2023/10/27 09:45:55;;;;;;;23.77;11.98;;;10.30;99.90;;;;;;5053150;28;20048;-76
2023/10/27 09:48:29;;;;;;;24.17;12.43;;;10.40;99.90;;;;;;5053547;28;20386;-76
2023/10/27 09:51:00;;;;;;;24.55;12.80;;;10.30;99.90;;;;;;5053616;28;20921;-76
2023/10/27 09:53:28;;;;;;;26.17;12.40;;;10.40;99.90;;;;;;5053259;28;20080;-76
2023/10/27 09:55:54;;;;;;;21.48;11.18;;;10.40;99.90;;;;;;5036767;28;20083;-76
2023/10/27 09:58:21;;;;;;;24.45;11.82;;;10.40;99.90;;;;;;5053524;28;20415;-76
2023/10/27 10:00:48;;;;;;;22.13;11.95;;;10.40;99.90;;;;;;5053281;28;20063;-75
2023/10/27 10:03:15;;;;;;;23.00;11.07;;;10.40;99.90;;;;;;5053078;28;20114;-76
2023/10/27 10:06:08;;;;;;;22.13;12.00;;;10.40;99.90;;;;;;5036543;28;20060;-76
2023/10/27 10:08:33;;;;;;;22.83;11.32;;;10.40;99.90;;;;;;5053287;28;20056;-75
2023/10/27 10:11:11;;;;;;;23.42;12.73;;;10.40;99.90;;;;;;5036404;28;20144;-75
2023/10/27 10:13:37;;;;;;;25.08;11.85;;;10.40;99.90;;;;;;5053362;28;20183;-75
2023/10/27 10:16:05;;;;;;;24.08;12.27;;;10.40;99.90;;;;;;5053090;28;20744;-75
2023/10/27 10:18:33;;;;;;;21.88;11.10;;;10.40;99.90;;;;;;5053064;28;20052;-75
2023/10/27 10:20:59;;;;;;;23.38;12.90;;;10.40;99.90;;;;;;5052645;28;20063;-76
2023/10/27 10:23:37;;;;;;;25.52;12.57;;;10.40;99.90;;;;;;5052937;28;20052;-76
2023/10/27 10:26:04;;;;;;;24.90;12.38;;;10.40;99.90;;;;;;5036284;28;20092;-76
2023/10/27 10:28:33;;;;;;;24.40;12.85;;;10.50;99.90;;;;;;5053085;28;20048;-77
2023/10/27 10:31:13;;;;;;;24.15;13.05;;;10.40;99.90;;;;;;5052695;28;20046;-76
2023/10/27 10:33:40;;;;;;;21.95;11.65;;;10.50;99.90;;;;;;5053096;28;20412;-76
2023/10/27 10:36:14;;;;;;;22.50;12.25;;;10.50;99.90;;;;;;5052586;28;20056;-76
2023/10/27 10:38:55;;;;;;;23.80;13.18;;;10.50;99.90;;;;;;5052859;28;20409;-76
2023/10/27 10:41:22;;;;;;;25.65;11.80;;;10.50;99.90;;;;;;5052712;28;20084;-75
2023/10/27 10:44:11;;;;;;;23.45;12.48;;;10.60;99.90;;;;;;5052680;28;20045;-75
2023/10/27 10:46:37;;;;;;;25.60;12.27;;;10.60;99.90;;;;;;5070107;28;20424;-76
2023/10/27 10:49:02;;;;;;;28.42;13.45;;;10.60;99.90;;;;;;5052211;28;20059;-75
2023/10/27 10:51:36;;;;;;;25.30;12.50;;;10.60;99.90;;;;;;5052166;28;20119;-78
2023/10/27 10:54:08;;;;;;;25.17;12.73;;;10.90;99.90;;;;;;5052359;28;20131;-77
2023/10/27 10:56:37;;;;;;;30.75;14.05;;;10.90;99.90;;;;;;5052238;28;20053;-77
2023/10/27 10:59:03;;;;;;;25.25;13.45;;;11.00;99.90;;;;;;5035362;28;20451;-76
2023/10/27 11:01:29;;;;;;;25.88;13.88;;;10.90;99.90;;;;;;5035509;28;20561;-77
2023/10/27 11:03:57;;;;;;;28.35;14.00;;;10.90;99.90;;;;;;5052140;28;20045;-75
2023/10/27 11:06:28;;;;;;;24.60;13.60;;;10.90;99.90;;;;;;5051876;28;20044;-76
2023/10/27 11:08:54;;;;;;;24.27;13.82;;;10.90;99.90;;;;;;5070039;28;20048;-78
2023/10/27 11:11:21;;;;;;;30.65;14.40;;;10.90;99.90;;;;;;5052168;28;20048;-75
2023/10/27 11:13:52;;;;;;;27.63;14.43;;;11.00;99.90;;;;;;5049578;28;20105;-75
2023/10/27 11:16:22;;;;;;;26.88;13.93;;;11.00;99.90;;;;;;5014712;28;20045;-76
2023/10/27 11:18:57;;;;;;;23.45;12.95;;;11.00;99.90;;;;;;5014565;28;20606;-76
2023/10/27 11:21:29;;;;;;;27.35;13.68;;;11.00;99.90;;;;;;5031399;28;20056;-76
2023/10/27 11:23:55;;;;;;;27.25;15.10;;;11.00;99.90;;;;;;5029648;28;20371;-75
2023/10/27 11:26:25;;;;;;;22.27;12.00;;;10.90;99.90;;;;;;5031190;28;20565;-75
2023/10/27 11:28:54;;;;;;;25.85;14.02;;;10.90;99.90;;;;;;5012072;28;20045;-76
2023/10/27 11:31:23;;;;;;;25.90;13.98;;;10.90;99.90;;;;;;5027882;28;20045;-76
2023/10/27 11:34:08;;;;;;;26.73;14.52;;;11.00;99.90;;;;;;5013512;28;20179;-76
2023/10/27 11:36:54;;;;;;;24.27;12.63;;;11.00;99.90;;;;;;5030200;28;20404;-76
2023/10/27 11:39:21;;;;;;;22.23;12.23;;;11.00;99.90;;;;;;5029647;28;20087;-76
2023/10/27 11:42:00;;;;;;;21.88;12.32;;;11.00;99.90;;;;;;5014824;28;20060;-77
2023/10/27 11:44:44;;;;;;;23.08;14.20;;;10.90;99.90;;;;;;5031289;28;20067;-78
2023/10/27 11:47:10;;;;;;;24.80;12.52;;;11.00;99.90;;;;;;5031885;28;20084;-78
2023/10/27 11:49:35;;;;;;;26.90;13.35;;;11.00;99.90;;;;;;5031786;28;20044;-77
2023/10/27 11:52:03;;;;;;;23.52;13.07;;;11.00;99.90;;;;;;5017077;28;20053;-78
2023/10/27 11:54:28;;;;;;;23.77;12.70;;;11.00;99.90;;;;;;5011816;28;20049;-78
2023/10/27 11:56:55;;;;;;;28.67;14.30;;;11.00;99.90;;;;;;5012864;28;20111;-77
2023/10/27 11:59:25;;;;;;;21.00;12.55;;;11.00;99.90;;;;;;5015230;28;20064;-77
2023/10/27 12:01:51;;;;;;;20.88;11.85;;;11.00;99.90;;;;;;5014179;28;20065;-79
2023/10/27 12:04:17;;;;;;;24.50;13.55;;;11.10;99.90;;;;;;5012393;28;20076;-73
2023/10/27 12:06:43;;;;;;;23.73;12.73;;;11.10;99.90;;;;;;4995430;28;20049;-81
2023/10/27 12:09:11;;;;;;;23.30;12.45;;;11.20;99.90;;;;;;5011719;28;20073;-79
2023/10/27 12:11:37;;;;;;;22.95;12.88;;;11.10;99.90;;;;;;5028832;28;20049;-79
2023/10/27 12:14:03;;;;;;;19.63;11.27;;;11.10;99.90;;;;;;5011781;28;20601;-79
2023/10/27 12:16:29;;;;;;;20.85;12.25;;;11.10;99.90;;;;;;5011579;28;20536;-79
2023/10/27 12:18:56;;;;;;;21.52;12.48;;;11.10;99.90;;;;;;5011451;28;20490;-78
2023/10/27 12:21:32;;;;;;;19.40;11.73;;;11.10;99.90;;;;;;5011783;28;20072;-78
2023/10/27 12:23:57;;;;;;;20.17;11.88;;;11.20;99.90;;;;;;5011305;28;20064;-78
2023/10/27 12:26:23;;;;;;;20.35;12.00;;;11.10;99.90;;;;;;5011040;28;20053;-77
2023/10/27 12:28:49;;;;;;;20.88;10.88;;;11.10;99.90;;;;;;5011543;28;20080;-78